Airfield :
LOGIN :

Register | Disclaimer

   EN    FR    IT 

 










Legend :    VFR   Marginal VFR   IFR   Intensive IFR   Very Intensive IFR
Visi :
Ceiling :
>= 8 km
>= 3000ft
5 to 8 km
1000 to 3000 ft
1500m to 5 km
500 to 1000 ft
800 to 1500m
200 to 500 ft
< 800m
< 200 ft
Symbols :   Thunderstorms  Fog  Heavy snow  Heavy precipitations  Wind > 20 kt
SIGMETs :     Misc.  Thunderstorms  Icing  Turbulence  Mountain Waves  Volcanic Ashes






- Airport Elevation : 17 ft
- IATA code : GRQ


EHGG - Groningen Eelde

CURRENT METAR :
  • 021325Z AUTO 07012KT 7000 SCT010 BKN012 OVC014 02/M00 Q1026 BECMG 9999 BKN017

EXPIRED METARs :
  • 021255Z AUTO 07011KT 040V110 7000 SCT010/// BKN012/// OVC015/// 02/M00 Q1026 BECMG 9999 BKN017
  • 021225Z AUTO 07011KT 040V100 6000 BKN010 OVC012 02/M00 Q1026 BECMG 9999 BKN017
  • 021155Z AUTO 07012KT 040V100 6000 BKN010 OVC012 02/00 Q1026 BECMG 9999 BKN017
  • 021125Z AUTO 06012KT 6000 FEW009 OVC010 02/M00 Q1026 TEMPO BKN009
  • 021055Z AUTO 07011KT 6000 FEW009 OVC010 02/M00 Q1026 TEMPO BKN009

TAF TAF EHGG
Valid from the 02 at 12:00 until the 03 at 18:00 UTC


021117Z 0212/0318 07011KT 6000 SCT008 BKN012
BECMG 0212/0215 9999 SCT012 BKN017
PROB40
TEMPO 0222/0304 7000 BKN008



MET'MAP, your aeronautical weather chart ! - Copyright ORBIFLY December 2007 - Disclaimer

ORBIFLY MET'MAP TEAM :

Programming & Development : Alexandra Zaïnal
Original concept : Baudouin d'Aumeries
Technical & hardware support : Manuel Goepfert
Assistance : Marc-Olivier Méhu




SOURCES & CREDITS :

   NOAA